airtraffic

Author Topic: SAC Executive - Porpoise landing gear failure  (Read 1598 times)

Offline ExPlaned

  • Newbie
  • *
  • Posts: 4
SAC Executive - Porpoise landing gear failure
« on: May 08, 2024, 10:27:02 PM »
Bounced landing resulted in gear failure
« Last Edit: May 09, 2024, 01:10:41 AM by RonR »



Offline ExPlaned

  • Newbie
  • *
  • Posts: 4
Re: SAC Executive - Porpoise landing gear failure
« Reply #1 on: May 08, 2024, 10:31:47 PM »
Audio with silence trimmed

Offline Fryy/Avocadoflight

  • Moderator
  • Hero Member
  • *****
  • Posts: 652
    • CalAggieFlyers
Re: SAC Executive - Porpoise landing gear failure
« Reply #2 on: May 09, 2024, 01:36:14 AM »
Woops.. Thanks for posting! Been pretty gusty here all day, wonder if that was a factor.

KSAC 090053Z 33021G35KT 10SM CLR 26/M01 A2982 RMK AO2 PK WND 35036/0042 RAE2358 SLP097 P0000 T02561006=